Time;durP1;ratioP1;P1;durP2;ratioP2;P2;SDS_P1;SDS_P2;PMS_P1;PMS_P2;Temp;Humidity;BMP_temperature;BMP_pressure;BME280_temperature;BME280_humidity;BME280_pressure;Samples;Min_cycle;Max_cycle;Signal;HPM_P1;HPM_P2
2023/04/02 00:01:05;;;;;;;9.95;4.97;;;;;;;;;;5047566;28;20467;-82
2023/04/02 00:03:43;;;;;;;9.07;5.10;;;;;;;;;;5081301;28;20473;-82
2023/04/02 00:06:33;;;;;;;10.65;5.57;;;;;;;;;;5087724;28;20435;-82
2023/04/02 00:09:03;;;;;;;9.32;5.28;;;;;;;;;;5088048;28;20896;-82
2023/04/02 00:11:32;;;;;;;10.75;5.25;;;;;;;;;;5088973;28;20858;-81
2023/04/02 00:14:00;;;;;;;8.77;5.10;;;;;;;;;;5070613;28;20949;-82
2023/04/02 00:16:27;;;;;;;9.50;4.97;;;;;;;;;;5090479;28;20765;-82
2023/04/02 00:18:54;;;;;;;8.75;4.70;;;;;;;;;;5056548;28;20422;-82
2023/04/02 00:21:22;;;;;;;10.02;4.95;;;;;;;;;;5057556;28;20394;-83
2023/04/02 00:23:49;;;;;;;9.55;4.47;;;;;;;;;;5054202;28;20932;-82
2023/04/02 00:26:39;;;;;;;8.50;4.45;;;4.30;99.90;;;;;;5056842;28;20432;-82
2023/04/02 00:29:06;;;;;;;9.52;4.93;;;;;;;;;;5055948;28;20410;-82
2023/04/02 00:31:33;;;;;;;9.18;4.22;;;;;;;;;;5072620;28;20902;-82
2023/04/02 00:34:00;;;;;;;8.90;4.65;;;;;;;;;;5061991;28;20458;-82
2023/04/02 00:36:29;;;;;;;6.72;4.00;;;;;;;;;;5067365;28;20420;-82
2023/04/02 00:38:56;;;;;;;10.00;4.47;;;;;;;;;;5070825;28;20399;-81
2023/04/02 00:41:25;;;;;;;8.10;4.05;;;;;;;;;;5070939;28;20391;-82
2023/04/02 00:43:53;;;;;;;7.68;4.32;;;;;;;;;;5097725;28;20424;-82
2023/04/02 00:46:22;;;;;;;9.07;4.30;;;;;;;;;;5084054;28;20901;-83
2023/04/02 00:48:52;;;;;;;9.30;4.25;;;;;;;;;;5072643;28;20820;-83
2023/04/02 00:51:27;;;;;;;9.50;4.13;;;;;;;;;;5087561;28;20449;-83
2023/04/02 00:53:54;;;;;;;8.25;3.80;;;;;;;;;;5073792;28;20410;-83
2023/04/02 00:56:26;;;;;;;6.10;3.60;;;;;;;;;;5089622;28;20925;-84
2023/04/02 00:58:53;;;;;;;8.15;3.75;;;;;;;;;;5057473;28;20398;-83
2023/04/02 01:01:21;;;;;;;8.32;3.95;;;;;;;;;;5083048;28;20415;-83
2023/04/02 01:03:58;;;;;;;7.38;3.88;;;;;;;;;;5053799;28;20843;-84
2023/04/02 01:06:28;;;;;;;8.50;3.70;;;;;;;;;;5064994;28;20945;-83
2023/04/02 01:09:01;;;;;;;7.78;3.90;;;;;;;;;;5071964;28;20820;-83
2023/04/02 01:11:30;;;;;;;8.05;3.90;;;;;;;;;;5107366;28;20492;-83
2023/04/02 01:14:02;;;;;;;9.73;3.70;;;;;;;;;;5059720;28;20606;-83
2023/04/02 01:16:31;;;;;;;7.70;3.97;;;;;;;;;;5080455;28;20919;-82
2023/04/02 01:19:28;;;;;;;8.77;3.78;;;3.20;99.90;;;;;;5074798;28;20743;-83
2023/04/02 01:22:00;;;;;;;8.05;3.72;;;;;;;;;;5052377;28;20420;-83
2023/04/02 01:24:30;;;;;;;8.63;3.30;;;;;;;;;;5060060;28;20432;-83
2023/04/02 01:27:12;;;;;;;10.10;4.05;;;;;;;;;;5077433;28;20424;-83
2023/04/02 01:29:44;;;;;;;9.25;4.10;;;;;;;;;;5094446;28;20886;-82
2023/04/02 01:32:12;;;;;;;7.32;3.50;;;;;;;;;;5093078;28;20395;-83
2023/04/02 01:34:38;;;;;;;9.20;3.95;;;;;;;;;;5059194;28;20417;-82
2023/04/02 01:37:23;;;;;;;8.02;3.70;;;;;;;;;;5085294;28;20411;-82
2023/04/02 01:39:59;;;;;;;9.90;3.90;;;;;;;;;;5089890;28;20421;-82
2023/04/02 01:42:29;;;;;;;9.85;4.20;;;;;;;;;;5091707;28;20905;-82
2023/04/02 01:45:03;;;;;;;8.15;3.53;;;;;;;;;;5085707;28;20450;-82
2023/04/02 01:47:29;;;;;;;9.57;3.97;;;;;;;;;;5059729;28;20428;-82
2023/04/02 01:50:04;;;;;;;8.70;4.00;;;;;;;;;;5077412;28;20497;-83
2023/04/02 01:52:40;;;;;;;11.10;3.60;;;;;;;;;;5094671;28;20416;-82
2023/04/02 01:55:07;;;;;;;7.82;3.63;;;;;;;;;;5091047;28;20403;-82
2023/04/02 01:57:33;;;;;;;8.90;3.67;;;;;;;;;;5091356;28;20432;-82
2023/04/02 02:00:01;;;;;;;6.87;3.60;;;;;;;;;;5076887;28;20547;-82
2023/04/02 02:02:27;;;;;;;6.47;3.60;;;;;;;;;;5075265;28;20913;-82
2023/04/02 02:04:53;;;;;;;9.85;3.78;;;;;;;;;;5108752;28;20422;-80
2023/04/02 02:07:20;;;;;;;8.68;3.75;;;;;;;;;;5094459;28;20803;-82
2023/04/02 02:09:47;;;;;;;8.68;3.40;;;;;;;;;;5089305;28;20455;-83
2023/04/02 02:12:14;;;;;;;9.75;3.40;;;;;;;;;;5086142;28;20414;-83
2023/04/02 02:14:51;;;;;;;6.90;3.20;;;;;;;;;;5094476;28;20819;-83
2023/04/02 02:17:26;;;;;;;7.35;3.15;;;;;;;;;;5086213;28;20446;-83
2023/04/02 02:19:55;;;;;;;7.65;3.58;;;;;;;;;;5094690;28;20414;-84
2023/04/02 02:22:21;;;;;;;7.53;2.90;;;;;;;;;;5075854;28;20438;-82
2023/04/02 02:24:48;;;;;;;5.90;2.90;;;;;;;;;;5073802;28;20464;-82
2023/04/02 02:27:23;;;;;;;7.32;2.70;;;;;;;;;;5086813;28;20500;-83
2023/04/02 02:29:51;;;;;;;6.95;2.75;;;;;;;;;;5078214;28;20412;-83
2023/04/02 02:32:18;;;;;;;6.38;3.13;;;;;;;;;;5093649;28;20406;-83
2023/04/02 02:35:05;;;;;;;7.95;3.03;;;;;;;;;;5094328;28;20405;-83
2023/04/02 02:37:36;;;;;;;6.93;2.78;;;;;;;;;;5059167;28;20418;-83
2023/04/02 02:40:05;;;;;;;7.13;2.72;;;;;;;;;;5056762;28;20464;-83
2023/04/02 02:42:33;;;;;;;7.03;2.60;;;;;;;;;;5074404;28;20759;-83
2023/04/02 02:45:01;;;;;;;5.63;2.47;;;;;;;;;;5089702;28;21045;-83
2023/04/02 02:47:33;;;;;;;8.43;2.60;;;;;;;;;;5070233;28;20469;-83
2023/04/02 02:50:01;;;;;;;5.15;2.40;;;;;;;;;;5088508;28;20605;-82
2023/04/02 02:52:28;;;;;;;5.30;2.30;;;;;;;;;;5073125;28;20435;-82
2023/04/02 02:54:56;;;;;;;10.05;2.72;;;;;;;;;;5109092;28;20917;-81
2023/04/02 02:57:25;;;;;;;6.97;2.80;;;;;;;;;;5058774;28;20422;-82
2023/04/02 02:59:52;;;;;;;7.10;2.53;;;;;;;;;;5050292;28;20423;-82
2023/04/02 03:02:18;;;;;;;6.97;2.30;;;;;;;;;;5086519;28;20429;-82
2023/04/02 03:04:49;;;;;;;7.10;2.53;;;;;;;;;;5057619;28;20418;-82
2023/04/02 03:07:18;;;;;;;6.40;2.38;;;;;;;;;;5092571;28;20932;-82
2023/04/02 03:10:04;;;;;;;8.90;2.38;;;;;;;;;;5089863;28;20505;-82
2023/04/02 03:12:50;;;;;;;5.88;2.22;;;;;;;;;;5086615;28;20430;-82
2023/04/02 03:15:16;;;;;;;7.72;2.65;;;;;;;;;;5092803;28;20408;-83
2023/04/02 03:17:42;;;;;;;5.43;2.07;;;;;;;;;;5090760;28;20422;-82
2023/04/02 03:20:21;;;;;;;4.75;2.00;;;;;;;;;;5057505;28;20422;-83
2023/04/02 03:23:20;;;;;;;9.38;2.38;;;;;;;;;;5075409;28;20417;-83
2023/04/02 03:25:46;;;;;;;6.32;2.10;;;;;;;;;;5024930;28;20923;-82
2023/04/02 03:28:15;;;;;;;5.23;2.30;;;;;;;;;;5088173;28;20514;-81
2023/04/02 03:30:44;;;;;;;7.05;2.33;;;;;;;;;;5093766;28;20465;-83
2023/04/02 03:33:21;;;;;;;7.67;2.20;;;;;;;;;;5058599;28;20411;-83
2023/04/02 03:35:53;;;;;;;6.95;2.13;;;;;;;;;;5058697;28;20421;-82
2023/04/02 03:38:27;;;;;;;6.80;1.90;;;;;;;;;;5095355;28;20418;-83
2023/04/02 03:41:04;;;;;;;5.67;2.10;;;;;;;;;;5081737;28;20488;-82
2023/04/02 03:43:36;;;;;;;7.40;2.20;;;;;;;;;;5085113;28;20751;-81
2023/04/02 03:46:17;;;;;;;7.05;2.42;;;;;;;;;;5090405;28;20426;-82
2023/04/02 03:48:47;;;;;;;4.85;2.20;;;;;;;;;;5108972;28;20906;-79
2023/04/02 03:51:19;;;;;;;5.28;2.15;;;;;;;;;;5083610;28;20469;-82
2023/04/02 03:53:46;;;;;;;5.90;2.00;;;;;;;;;;5050561;28;20456;-86
2023/04/02 03:56:20;;;;;;;6.78;2.00;;;;;;;;;;5059172;28;20413;-85
2023/04/02 03:58:49;;;;;;;6.30;2.15;;;;;;;;;;5082269;28;20476;-85
2023/04/02 04:01:18;;;;;;;7.75;2.50;;;;;;;;;;5081429;28;20765;-85
2023/04/02 04:03:46;;;;;;;6.72;2.10;;;;;;;;;;5053682;28;20516;-85
2023/04/02 04:06:22;;;;;;;7.13;2.20;;;;;;;;;;5086585;28;20438;-86
2023/04/02 04:09:02;;;;;;;7.47;2.25;;;;;;;;;;5089747;28;20422;-85
2023/04/02 04:11:36;;;;;;;6.85;2.22;;;;;;;;;;5062511;28;20415;-85
2023/04/02 04:14:02;;;;;;;7.30;2.25;;;;;;;;;;5072716;28;20420;-86
2023/04/02 04:16:34;;;;;;;7.22;2.10;;;;;;;;;;5074697;28;20477;-85
2023/04/02 04:19:06;;;;;;;5.82;2.22;;;;;;;;;;5057247;28;20414;-85
2023/04/02 04:21:36;;;;;;;6.03;2.13;;;;;;;;;;5091178;28;20414;-86
2023/04/02 04:24:22;;;;;;;5.22;2.25;;;;;;;;;;5092127;28;20851;-85
2023/04/02 04:26:52;;;;;;;6.70;2.45;;;;;;;;;;5075872;28;20401;-86
2023/04/02 04:29:37;;;;;;;7.35;2.42;;;;;;;;;;5092953;28;20879;-85
2023/04/02 04:32:26;;;;;;;6.60;2.25;;;;;;;;;;5092311;28;20401;-86
2023/04/02 04:34:56;;;;;;;6.03;2.03;;;;;;;;;;5056598;28;20406;-82
2023/04/02 04:37:32;;;;;;;6.85;2.53;;;;;;;;;;5094003;28;20492;-85
2023/04/02 04:40:01;;;;;;;6.10;2.10;;;;;;;;;;5084114;28;20434;-87
2023/04/02 04:42:30;;;;;;;6.47;2.25;;;;;;;;;;5088037;28;20823;-84
2023/04/02 04:45:07;;;;;;;8.10;2.03;;;;;;;;;;5047669;28;20418;-85
2023/04/02 04:47:38;;;;;;;5.13;2.00;;;;;;;;;;5076910;28;20394;-85
2023/04/02 04:50:18;;;;;;;7.70;2.10;;;;;;;;;;5075875;28;20405;-85
2023/04/02 04:52:45;;;;;;;8.05;1.90;;;;;;;;;;5057629;28;20398;-84
2023/04/02 04:55:36;;;;;;;8.38;2.20;;;;;;;;;;5075492;28;20409;-85
2023/04/02 04:58:08;;;;;;;6.28;1.92;;;;;;;;;;5091241;28;20429;-85
2023/04/02 05:00:41;;;;;;;6.95;1.90;;;;;;;;;;5091679;28;20746;-84
2023/04/02 05:03:15;;;;;;;6.80;2.20;;;;;;;;;;5091928;28;20545;-83
2023/04/02 05:05:42;;;;;;;5.07;1.98;;;;;;;;;;5090336;28;20986;-85
2023/04/02 05:08:19;;;;;;;7.57;2.20;;;;;;;;;;5090376;28;20433;-85
2023/04/02 05:10:57;;;;;;;5.47;2.03;;;;;;;;;;5072400;28;20414;-83
2023/04/02 05:13:28;;;;;;;5.85;2.10;;;;;;;;;;5085259;28;20418;-85
2023/04/02 05:15:57;;;;;;;5.53;1.95;;;;;;;;;;5064550;28;20425;-82
2023/04/02 05:18:30;;;;;;;9.40;2.35;;;;;;;;;;5080455;28;20420;-85
2023/04/02 05:21:07;;;;;;;7.40;2.00;;;;;;;;;;5050236;28;20444;-86
2023/04/02 05:23:35;;;;;;;7.55;2.22;;;;;;;;;;5091052;28;20402;-86
2023/04/02 05:26:20;;;;;;;8.48;2.40;;;;;;;;;;5089520;28;20421;-87
2023/04/02 05:28:57;;;;;;;6.97;2.15;;;;;;;;;;5090972;28;20485;-86
2023/04/02 05:31:49;;;;;;;7.82;2.38;;;;;;;;;;5086315;28;20414;-85
2023/04/02 05:34:22;;;;;;;5.10;1.80;;;;;;;;;;5025082;28;20462;-86
2023/04/02 05:36:49;;;;;;;7.70;2.22;;;;;;;;;;5072141;28;20913;-87
2023/04/02 05:39:18;;;;;;;5.90;1.83;;;;;;;;;;5076057;28;20754;-88
2023/04/02 05:41:46;;;;;;;8.02;1.90;;;;;;;;;;5092493;28;20429;-88
2023/04/02 05:44:15;;;;;;;7.30;2.50;;;;;;;;;;5045664;28;20757;-87
2023/04/02 05:46:47;;;;;;;5.60;1.80;;;;;;;;;;5074816;28;20503;-83
2023/04/02 05:49:20;;;;;;;9.80;2.03;;;;;;;;;;5072632;28;20488;-85
2023/04/02 05:51:48;;;;;;;5.93;1.73;;;;;;;;;;5091815;28;20417;-81
2023/04/02 05:54:42;;;;;;;8.18;2.15;;;;;;;;;;5092497;28;20398;-85
2023/04/02 05:57:19;;;;;;;6.18;1.88;;;;;;;;;;5086633;28;20421;-86
2023/04/02 05:59:56;;;;;;;4.95;1.50;;;;;;;;;;5078420;28;20426;-86
2023/04/02 06:02:29;;;;;;;6.47;1.90;;;;;;;;;;5072666;28;20412;-86
2023/04/02 06:04:57;;;;;;;6.70;1.98;;;;;;;;;;5076929;28;20426;-86
2023/04/02 06:07:27;;;;;;;3.97;1.60;;;;;;;;;;5094424;28;20527;-86
2023/04/02 06:09:57;;;;;;;6.88;1.83;;;;;;;;;;5060813;28;20475;-86
2023/04/02 06:12:29;;;;;;;6.97;1.75;;;;;;;;;;5076452;28;20446;-86
2023/04/02 06:14:58;;;;;;;4.00;1.70;;;;;;;;;;5060437;28;20424;-86
2023/04/02 06:17:35;;;;;;;8.75;1.98;;;;;;;;;;5088508;28;20420;-82
2023/04/02 06:20:08;;;;;;;6.22;2.03;;;;;;;;;;5078376;28;20761;-85
2023/04/02 06:26:04;;;;;;;4.95;1.70;;;;;;;;;;5068971;28;20498;-86
2023/04/02 06:28:52;;;;;;;4.67;1.50;;;;;;;;;;5055900;28;20495;-85
2023/04/02 06:31:27;;;;;;;7.05;1.98;;;;;;;;;;5092753;28;20846;-86
2023/04/02 06:33:57;;;;;;;5.40;1.70;;;;;;;;;;5062374;28;20428;-85
2023/04/02 06:36:25;;;;;;;6.20;1.60;;;;;;;;;;5055377;28;20485;-88
2023/04/02 06:38:57;;;;;;;6.17;1.77;;;;;;;;;;5081609;28;20421;-84
2023/04/02 06:41:24;;;;;;;4.75;2.00;;;;;;;;;;5075685;28;20429;-83
2023/04/02 06:43:58;;;;;;;4.80;1.60;;;;;;;;;;5093543;28;20414;-82
2023/04/02 06:46:42;;;;;;;6.80;1.80;;;;;;;;;;5093556;28;20414;-82
2023/04/02 06:49:14;;;;;;;5.00;1.48;;;;;;;;;;5076103;28;20406;-82
2023/04/02 06:51:41;;;;;;;5.93;1.52;;;;;;;;;;5090726;28;20429;-82
2023/04/02 06:54:12;;;;;;;6.90;1.80;;;;;;;;;;5074731;28;20429;-82
2023/04/02 06:56:46;;;;;;;7.05;1.70;;;;;;;;;;5099887;28;20426;-81
2023/04/02 06:59:13;;;;;;;5.95;1.50;;;;;;;;;;5063745;28;20423;-81
2023/04/02 07:01:57;;;;;;;5.72;2.08;;;;;;;;;;5075302;28;20450;-83
2023/04/02 07:04:23;;;;;;;3.88;1.55;;;;;;;;;;5076795;28;20425;-86
2023/04/02 07:06:50;;;;;;;4.80;1.40;;;;;;;;;;5078039;28;20734;-85
2023/04/02 07:09:16;;;;;;;5.13;1.80;;;;;;;;;;5091680;28;20422;-86
2023/04/02 07:11:45;;;;;;;6.20;1.90;;;;;;;;;;5061270;28;20455;-87
2023/04/02 07:14:14;;;;;;;5.22;1.67;;;;;;;;;;5058199;28;20482;-87
2023/04/02 07:16:41;;;;;;;5.72;1.50;;;;;;;;;;5057784;28;20418;-84
2023/04/02 07:19:15;;;;;;;7.05;1.73;;;;;;;;;;5075158;28;20487;-84
2023/04/02 07:21:41;;;;;;;6.75;1.80;;;;;;;;;;5068687;28;20502;-84
2023/04/02 07:24:07;;;;;;;6.20;1.75;;;;;;;;;;5039597;28;20415;-85
2023/04/02 07:26:33;;;;;;;5.22;1.70;;;;;;;;;;5056349;28;20404;-85
2023/04/02 07:29:00;;;;;;;3.78;1.55;;;;;;;;;;5042744;28;20520;-86
2023/04/02 07:31:27;;;;;;;5.43;1.80;;;;;;;;;;5055274;28;20458;-86
2023/04/02 07:33:56;;;;;;;6.53;1.90;;;;;;;;;;5056395;28;20422;-85
2023/04/02 07:36:23;;;;;;;3.63;1.50;;;;;;;;;;5039223;28;20510;-84
2023/04/02 07:38:50;;;;;;;5.20;1.80;;;;;;;;;;5048552;28;20421;-84
2023/04/02 07:41:16;;;;;;;5.07;1.60;;;;;;;;;;5049112;28;20417;-86
2023/04/02 07:43:42;;;;;;;5.60;1.77;;;;;;;;;;5040292;28;20427;-86
2023/04/02 07:46:09;;;;;;;4.00;1.60;;;;;;;;;;5053885;28;20425;-86
2023/04/02 07:48:36;;;;;;;6.75;2.10;;;;;;;;;;5073202;28;20415;-84
2023/04/02 07:51:02;;;;;;;6.53;2.10;;;;;;;;;;5048082;28;20423;-83
2023/04/02 07:53:28;;;;;;;5.35;1.70;;;;;;;;;;5066812;28;20910;-85
2023/04/02 07:55:55;;;;;;;7.05;1.70;;;;;;;;;;5054837;28;20509;-84
2023/04/02 07:58:21;;;;;;;5.75;1.60;;;;;;;;;;5073047;28;20925;-86
2023/04/02 08:00:47;;;;;;;6.93;1.63;;;;;;;;;;5070706;28;20884;-85
2023/04/02 08:03:13;;;;;;;5.90;1.60;;;;;;;;;;5085216;28;20434;-85
2023/04/02 08:05:41;;;;;;;4.38;1.58;;;;;;;;;;5070914;28;20428;-84
2023/04/02 08:08:07;;;;;;;4.93;1.60;;;;;;;;;;5053880;28;20968;-83
2023/04/02 08:10:33;;;;;;;4.22;1.60;;;;;;;;;;5049323;28;20429;-84
2023/04/02 08:12:59;;;;;;;4.40;1.70;;;;;;;;;;5050991;28;20419;-86
2023/04/02 08:15:25;;;;;;;6.95;1.95;;;;;;;;;;5054587;28;20516;-84
2023/04/02 08:17:52;;;;;;;5.38;1.60;;;;;;;;;;5037194;28;20775;-85
2023/04/02 08:20:19;;;;;;;6.05;1.63;;;;;;;;;;5053877;28;20500;-86
2023/04/02 08:22:46;;;;;;;7.53;2.20;;;;;;;;;;5070328;28;20411;-83
2023/04/02 08:25:12;;;;;;;6.85;1.67;;;;;;;;;;5055942;28;20425;-83
2023/04/02 08:27:38;;;;;;;4.13;1.40;;;;;;;;;;5054090;28;20737;-83
2023/04/02 08:30:06;;;;;;;5.10;1.73;;;;;;;;;;5055109;28;20478;-83
2023/04/02 08:32:32;;;;;;;6.00;1.70;;;;;;;;;;5042768;28;20412;-81
2023/04/02 08:34:58;;;;;;;4.63;1.80;;;;;;;;;;5051956;28;20414;-83
2023/04/02 08:37:25;;;;;;;5.57;1.63;;;;;;;;;;5049818;28;20492;-83
2023/04/02 08:39:51;;;;;;;5.72;1.50;;;;;;;;;;5046780;28;20456;-82
2023/04/02 08:42:17;;;;;;;4.63;1.50;;;;;;;;;;5085415;28;21029;-82
2023/04/02 08:44:49;;;;;;;4.32;1.60;;;;;;;;;;5067431;28;20486;-83
2023/04/02 08:47:19;;;;;;;5.65;1.77;;;;;;;;;;5067824;28;20503;-83
2023/04/02 08:50:08;;;;;;;6.05;1.65;;;;;;;;;;5061833;28;20425;-83
2023/04/02 08:52:36;;;;;;;5.75;1.63;;;;;;;;;;5104274;28;20909;-83
2023/04/02 08:55:04;;;;;;;5.68;1.67;;;;;;;;;;5075204;28;20410;-83
2023/04/02 08:57:34;;;;;;;5.95;1.95;;;;;;;;;;5042761;28;20443;-82
2023/04/02 09:00:15;;;;;;;6.93;2.08;;;;;;;;;;5050194;28;20427;-84
2023/04/02 09:02:45;;;;;;;3.75;1.40;;;;;;;;;;5053544;28;20457;-84
2023/04/02 09:05:17;;;;;;;5.65;1.60;;;;;;;;;;5055130;28;20427;-84
2023/04/02 09:07:44;;;;;;;6.82;2.15;;;;;;;;;;5051482;28;20420;-87
2023/04/02 09:10:13;;;;;;;6.65;1.80;;;;;;;;;;5057731;28;20434;-88
2023/04/02 09:12:40;;;;;;;3.97;1.53;;;;;;;;;;5095002;28;20570;-86
2023/04/02 09:15:29;;;;;;;4.38;1.60;;;;;;;;;;5071812;28;20505;-83
2023/04/02 09:18:04;;;;;;;5.88;1.63;;;;;;;;;;5070910;28;20442;-82
2023/04/02 09:20:30;;;;;;;4.55;1.60;;;;;;;;;;5089466;28;20417;-83
2023/04/02 09:22:56;;;;;;;4.87;1.40;;;;;;;;;;5071399;28;20492;-83
2023/04/02 09:25:33;;;;;;;4.65;1.55;;;;;;;;;;5105945;28;20457;-86
2023/04/02 09:28:01;;;;;;;5.20;1.65;;;;;;;;;;5055901;28;20482;-84
2023/04/02 09:30:46;;;;;;;4.32;1.70;;;;;;;;;;5056175;28;20459;-85
2023/04/02 09:33:12;;;;;;;5.13;1.73;;;;;;;;;;5069814;28;20417;-84
2023/04/02 09:35:50;;;;;;;4.75;1.63;;;;;;;;;;5069731;28;20425;-82
2023/04/02 09:38:16;;;;;;;5.20;1.80;;;;;;;;;;5076326;28;20426;-83
2023/04/02 09:41:01;;;;;;;3.75;1.73;;;;;;;;;;5076244;28;20421;-82
2023/04/02 09:43:29;;;;;;;5.23;2.03;;;;;;;;;;5075433;28;20452;-81
2023/04/02 09:46:03;;;;;;;4.40;1.73;;;;;;;;;;5070592;28;21914;-81
2023/04/02 09:48:35;;;;;;;4.97;1.87;;;;;;;;;;5112220;28;20402;-81
2023/04/02 09:51:11;;;;;;;4.07;1.50;;;;;;;;;;5077985;28;20497;-82
2023/04/02 09:53:39;;;;;;;4.07;1.40;;;;;;;;;;5080401;28;20421;-86
2023/04/02 09:56:25;;;;;;;4.43;1.50;;;;;;;;;;5092375;28;20468;-79
2023/04/02 09:59:05;;;;;;;5.45;1.77;;;;;;;;;;5048331;28;20429;-85
2023/04/02 10:01:43;;;;;;;5.45;1.80;;;;;;;;;;5094953;28;20450;-82
2023/04/02 10:04:28;;;;;;;5.10;1.85;;;;;;;;;;5056220;28;20493;-83
2023/04/02 10:06:56;;;;;;;5.47;1.92;;;;;;;;;;5071867;28;20412;-83
2023/04/02 10:09:29;;;;;;;5.43;1.70;;;;;;;;;;5090277;28;20497;-82
2023/04/02 10:11:55;;;;;;;3.53;1.50;;;;;;;;;;5062206;28;20496;-82
2023/04/02 10:14:25;;;;;;;4.30;1.50;;;;;;;;;;5030572;28;20421;-82
2023/04/02 10:16:53;;;;;;;4.82;1.58;;;;;;;;;;5071895;28;20423;-81
2023/04/02 10:19:35;;;;;;;4.67;1.60;;;8.30;99.90;;;;;;5072628;28;20794;-79
2023/04/02 10:22:15;;;;;;;3.92;1.40;;;;;;;;;;5072116;28;20499;-81
2023/04/02 10:24:41;;;;;;;4.85;1.35;;;;;;;;;;5073006;28;20430;-84
2023/04/02 10:27:21;;;;;;;6.70;1.60;;;;;;;;;;5074288;28;20420;-82
2023/04/02 10:30:00;;;;;;;5.93;1.65;;;;;;;;;;5056430;28;20481;-82
2023/04/02 10:32:42;;;;;;;3.38;1.40;;;;;;;;;;5073608;28;20407;-82
2023/04/02 10:35:14;;;;;;;5.17;1.60;;;;;;;;;;5079456;28;20413;-82
2023/04/02 10:37:49;;;;;;;3.60;1.30;;;;;;;;;;5075470;28;20457;-82
2023/04/02 10:40:24;;;;;;;3.92;1.60;;;;;;;;;;5055331;28;20423;-83
2023/04/02 10:42:58;;;;;;;4.57;1.52;;;;;;;;;;5050189;28;20968;-82
2023/04/02 10:45:43;;;;;;;4.95;1.65;;;;;;;;;;5064050;28;20481;-82
2023/04/02 10:48:28;;;;;;;3.15;1.10;;;;;;;;;;5056137;28;20814;-81
2023/04/02 10:51:03;;;;;;;5.13;1.60;;;;;;;;;;5052432;28;20499;-81
2023/04/02 10:53:38;;;;;;;3.78;1.80;;;;;;;;;;5072011;28;20418;-82
2023/04/02 10:56:07;;;;;;;4.20;1.63;;;;;;;;;;5068256;28;20753;-83
2023/04/02 10:58:37;;;;;;;4.10;1.60;;;;;;;;;;5049163;28;20908;-81
2023/04/02 11:01:15;;;;;;;4.40;1.20;;;;;;;;;;5069848;28;20428;-82
2023/04/02 11:03:48;;;;;;;3.83;1.40;;;;;;;;;;5071338;28;20429;-82
2023/04/02 11:06:23;;;;;;;3.70;1.25;;;;;;;;;;5053339;28;20427;-81
2023/04/02 11:08:56;;;;;;;3.97;1.40;;;;;;;;;;5052415;28;20487;-82
2023/04/02 11:11:27;;;;;;;3.60;1.25;;;;;;;;;;5045091;28;20420;-82
2023/04/02 11:14:01;;;;;;;4.85;1.98;;;;;;;;;;5053140;28;20412;-80
2023/04/02 11:16:27;;;;;;;4.43;1.60;;;;;;;;;;5052873;28;20477;-80
2023/04/02 11:19:12;;;;;;;4.60;1.77;;;;;;;;;;5069447;28;20423;-80
2023/04/02 11:21:58;;;;;;;3.38;1.17;;;;;;;;;;5049987;28;20798;-79
2023/04/02 11:24:31;;;;;;;3.70;1.30;;;;;;;;;;5067257;28;20496;-78
2023/04/02 11:27:10;;;;;;;4.80;1.52;;;;;;;;;;5066949;28;20434;-82
2023/04/02 11:29:39;;;;;;;3.10;1.02;;;;;;;;;;5068420;28;20434;-81
2023/04/02 11:32:12;;;;;;;4.57;1.60;;;;;;;;;;5054883;28;20412;-83
2023/04/02 11:34:41;;;;;;;3.45;1.30;;;;;;;;;;5054579;28;20533;-82
2023/04/02 11:37:10;;;;;;;4.30;1.45;;;;;;;;;;5072118;28;20464;-85
2023/04/02 11:39:50;;;;;;;3.67;1.20;;;;;;;;;;5055678;28;20494;-84
2023/04/02 11:42:19;;;;;;;3.28;1.33;;;;;;;;;;5046796;28;20408;-85
2023/04/02 11:44:45;;;;;;;5.90;1.40;;;;;;;;;;5066581;28;20917;-83
2023/04/02 11:47:15;;;;;;;3.47;1.20;;;;;;;;;;5040950;28;20417;-82
2023/04/02 11:50:02;;;;;;;3.03;1.25;;;;;;;;;;5054277;28;20800;-84
2023/04/02 11:52:31;;;;;;;3.13;1.30;;;;;;;;;;5053908;28;20412;-82
2023/04/02 11:54:59;;;;;;;4.47;1.30;;;;;;;;;;5065369;28;20425;-81
2023/04/02 11:57:33;;;;;;;2.63;1.13;;;;;;;;;;5086496;28;20445;-80
2023/04/02 12:00:20;;;;;;;3.88;0.93;;;;;;;;;;5071659;28;20802;-78
2023/04/02 12:02:49;;;;;;;3.53;1.00;;;;;;;;;;5069906;28;20415;-82
2023/04/02 12:05:23;;;;;;;2.72;1.10;;;;;;;;;;5066357;28;20428;-82
2023/04/02 12:08:04;;;;;;;4.28;1.48;;;;;;;;;;5054054;28;20406;-81
2023/04/02 12:10:52;;;;;;;3.58;1.30;;;;;;;;;;5052248;28;20417;-80
2023/04/02 12:13:41;;;;;;;3.13;1.10;;;;;;;;;;5072445;28;20939;-83
2023/04/02 12:16:11;;;;;;;3.17;1.10;;;;;;;;;;5034953;28;20435;-83
2023/04/02 12:18:45;;;;;;;2.85;1.13;;;10.70;99.90;;;;;;5089816;28;20421;-82
2023/04/02 12:21:19;;;;;;;4.05;1.20;;;;;;;;;;5063944;28;20426;-82
2023/04/02 12:23:46;;;;;;;3.53;1.20;;;;;;;;;;5082661;28;20579;-81
2023/04/02 12:26:30;;;;;;;3.78;1.10;;;;;;;;;;5066826;28;20425;-81
2023/04/02 12:29:15;;;;;;;4.95;1.52;;;;;;;;;;5078029;28;20433;-81
2023/04/02 12:31:46;;;;;;;3.20;1.10;;;;;;;;;;5084901;28;20497;-81
2023/04/02 12:34:16;;;;;;;2.90;1.37;;;;;;;;;;5084728;28;20420;-81
2023/04/02 12:37:02;;;;;;;4.07;1.20;;;;;;;;;;5070171;28;20418;-80
2023/04/02 12:39:29;;;;;;;4.82;1.60;;;;;;;;;;5068476;28;20422;-81
2023/04/02 12:41:56;;;;;;;3.60;1.25;;;;;;;;;;5070606;28;20445;-81
2023/04/02 12:44:26;;;;;;;4.03;1.58;;;10.80;99.90;;;;;;5055554;28;20421;-80
2023/04/02 12:46:53;;;;;;;2.45;1.02;;;10.60;99.90;;;;;;5098041;28;20458;-80
2023/04/02 12:49:22;;;;;;;3.80;1.05;;;;;;;;;;5055971;28;20445;-80
2023/04/02 12:51:48;;;;;;;3.15;1.20;;;;;;;;;;5068740;28;20499;-80
2023/04/02 12:54:19;;;;;;;3.05;1.48;;;;;;;;;;5066649;28;20418;-80
2023/04/02 12:56:46;;;;;;;4.40;1.63;;;;;;;;;;5049197;28;20872;-80
2023/04/02 12:59:42;;;;;;;2.90;1.00;;;11.00;99.90;;;;;;5054823;28;20456;-80
2023/04/02 13:02:44;;;;;;;2.97;1.17;;;10.90;99.90;;;;;;5050013;28;20406;-80
2023/04/02 13:05:10;;;;;;;3.25;1.23;;;;;;;;;;5034322;28;20430;-80
2023/04/02 13:07:37;;;;;;;3.55;1.10;;;;;;;;;;5075203;28;20471;-78
2023/04/02 13:10:22;;;;;;;1.93;0.90;;;;;;;;;;5094224;28;20418;-80
2023/04/02 13:12:53;;;;;;;2.23;1.00;;;11.30;99.90;;;;;;5075144;28;20941;-80
2023/04/02 13:15:22;;;;;;;2.55;1.00;;;;;;;;;;5072682;28;21141;-80
2023/04/02 13:18:01;;;;;;;3.97;1.20;;;;;;;;;;5075043;28;20425;-80
2023/04/02 13:20:28;;;;;;;3.67;1.05;;;;;;;;;;5078143;28;20417;-80
2023/04/02 13:22:54;;;;;;;3.53;1.27;;;;;;;;;;5077609;28;20417;-80
2023/04/02 13:25:30;;;;;;;3.40;1.30;;;11.00;99.90;;;;;;5074127;28;20424;-79
2023/04/02 13:27:56;;;;;;;2.45;1.10;;;;;;;;;;5070858;28;20409;-80
2023/04/02 13:30:24;;;;;;;3.42;1.10;;;;;;;;;;5075729;28;20421;-80
2023/04/02 13:32:50;;;;;;;2.80;0.93;;;;;;;;;;5076922;28;20416;-79
2023/04/02 13:35:16;;;;;;;3.35;1.40;;;;;;;;;;5073625;28;20425;-79
2023/04/02 13:37:42;;;;;;;2.75;1.10;;;;;;;;;;5078974;28;20428;-79
2023/04/02 13:40:18;;;;;;;1.92;0.93;;;;;;;;;;5077440;28;20417;-79
2023/04/02 13:42:44;;;;;;;4.03;1.10;;;;;;;;;;5078858;28;20478;-80
2023/04/02 13:45:20;;;;;;;2.55;1.13;;;;;;;;;;5093267;28;20440;-79
2023/04/02 13:47:46;;;;;;;3.42;1.23;;;;;;;;;;5078432;28;20761;-79
2023/04/02 13:50:16;;;;;;;3.03;1.20;;;;;;;;;;5070545;28;20937;-80
2023/04/02 13:52:42;;;;;;;3.25;1.10;;;;;;;;;;5094448;28;20428;-79
2023/04/02 13:55:09;;;;;;;4.32;1.50;;;;;;;;;;5079269;28;20429;-79
2023/04/02 13:57:36;;;;;;;3.83;1.00;;;;;;;;;;5056071;28;20767;-77
2023/04/02 14:00:03;;;;;;;1.90;0.90;;;9.60;99.90;;;;;;5091711;28;20425;-78
2023/04/02 14:02:30;;;;;;;2.38;1.00;;;;;;;;;;5109728;28;20437;-78
2023/04/02 14:05:19;;;;;;;3.28;1.25;;;;;;;;;;5059342;28;20427;-79
2023/04/02 14:07:45;;;;;;;4.15;1.40;;;;;;;;;;5044964;28;20427;-78
2023/04/02 14:10:11;;;;;;;3.97;1.70;;;;;;;;;;5074661;28;20453;-79
2023/04/02 14:12:56;;;;;;;3.35;1.40;;;;;;;;;;5073565;28;20429;-77
2023/04/02 14:15:51;;;;;;;3.88;1.30;;;10.30;99.90;;;;;;5050698;28;20430;-78
2023/04/02 14:18:20;;;;;;;4.57;1.50;;;;;;;;;;5110422;28;20479;-79
2023/04/02 14:20:59;;;;;;;3.70;1.30;;;;;;;;;;5074123;28;20773;-79
2023/04/02 14:23:31;;;;;;;2.97;1.10;;;;;;;;;;5082357;28;20414;-78
2023/04/02 14:26:13;;;;;;;3.28;1.30;;;;;;;;;;5085251;28;20474;-81
2023/04/02 14:29:03;;;;;;;3.72;2.22;;;;;;;;;;5072009;28;20449;-80
2023/04/02 14:31:33;;;;;;;3.78;1.40;;;;;;;;;;5022155;28;20418;-78
2023/04/02 14:34:24;;;;;;;3.30;1.10;;;9.80;99.90;;;;;;5086578;28;20791;-78
2023/04/02 14:36:59;;;;;;;2.88;1.00;;;;;;;;;;5097734;28;20507;-79
2023/04/02 14:39:31;;;;;;;3.33;1.30;;;;;;;;;;5056347;28;20425;-78
2023/04/02 14:42:02;;;;;;;4.03;2.00;;;9.90;99.90;;;;;;5073539;28;20506;-79
2023/04/02 14:44:32;;;;;;;3.50;1.40;;;;;;;;;;5049221;28;20761;-79
2023/04/02 14:47:10;;;;;;;3.33;1.50;;;;;;;;;;5069357;28;20418;-79
2023/04/02 14:49:38;;;;;;;3.00;1.10;;;;;;;;;;5072383;28;20421;-78
2023/04/02 14:52:18;;;;;;;3.58;2.00;;;10.30;99.90;;;;;;5100113;28;20487;-78
2023/04/02 14:55:12;;;;;;;4.30;1.98;;;;;;;;;;5067394;28;20500;-76
2023/04/02 14:57:40;;;;;;;3.03;1.17;;;;;;;;;;5086714;28;20865;-78
2023/04/02 15:00:24;;;;;;;2.38;1.13;;;10.30;99.90;;;;;;5068057;28;20441;-77
2023/04/02 15:02:57;;;;;;;3.95;1.10;;;;;;;;;;5090555;28;20418;-78
2023/04/02 15:05:36;;;;;;;3.45;1.00;;;;;;;;;;5073453;28;20426;-80
2023/04/02 15:08:07;;;;;;;2.97;1.13;;;;;;;;;;5072365;28;20834;-76
2023/04/02 15:10:39;;;;;;;3.75;1.30;;;;;;;;;;5075410;28;20441;-75
2023/04/02 15:13:11;;;;;;;2.72;1.05;;;;;;;;;;5074996;28;20425;-76